sensor_id;sensor_type;location;lat;lon;timestamp;P1;durP1;ratioP1;P2;durP2;ratioP2
59734;SDS011;64362;45.620;4.920;2023-03-23T00:01:15;4.85;;;3.72;;
59734;SDS011;64362;45.620;4.920;2023-03-23T00:03:48;4.78;;;3.80;;
59734;SDS011;64362;45.620;4.920;2023-03-23T00:06:15;6.93;;;4.22;;
59734;SDS011;64362;45.620;4.920;2023-03-23T00:08:43;5.80;;;3.42;;
59734;SDS011;64362;45.620;4.920;2023-03-23T00:11:13;6.22;;;3.72;;
59734;SDS011;64362;45.620;4.920;2023-03-23T00:13:40;5.13;;;3.70;;
59734;SDS011;64362;45.620;4.920;2023-03-23T00:16:07;4.28;;;3.33;;
59734;SDS011;64362;45.620;4.920;2023-03-23T00:18:51;4.32;;;3.60;;
59734;SDS011;64362;45.620;4.920;2023-03-23T00:21:23;4.57;;;3.25;;
59734;SDS011;64362;45.620;4.920;2023-03-23T00:23:53;4.20;;;3.30;;
59734;SDS011;64362;45.620;4.920;2023-03-23T00:26:18;5.95;;;3.72;;
59734;SDS011;64362;45.620;4.920;2023-03-23T00:28:44;5.47;;;3.90;;
59734;SDS011;64362;45.620;4.920;2023-03-23T00:31:12;6.07;;;3.88;;
59734;SDS011;64362;45.620;4.920;2023-03-23T00:33:38;4.60;;;3.20;;
59734;SDS011;64362;45.620;4.920;2023-03-23T00:36:09;5.13;;;3.47;;
59734;SDS011;64362;45.620;4.920;2023-03-23T00:38:38;4.35;;;3.13;;
59734;SDS011;64362;45.620;4.920;2023-03-23T00:41:05;5.25;;;3.55;;
59734;SDS011;64362;45.620;4.920;2023-03-23T00:43:31;4.25;;;3.60;;
59734;SDS011;64362;45.620;4.920;2023-03-23T00:46:00;5.38;;;3.92;;
59734;SDS011;64362;45.620;4.920;2023-03-23T00:48:28;5.55;;;3.83;;
59734;SDS011;64362;45.620;4.920;2023-03-23T00:50:54;3.80;;;3.28;;
59734;SDS011;64362;45.620;4.920;2023-03-23T00:53:20;4.47;;;3.47;;
59734;SDS011;64362;45.620;4.920;2023-03-23T00:55:46;4.63;;;2.97;;
59734;SDS011;64362;45.620;4.920;2023-03-23T00:58:12;5.63;;;3.58;;
59734;SDS011;64362;45.620;4.920;2023-03-23T01:00:38;4.32;;;3.45;;
59734;SDS011;64362;45.620;4.920;2023-03-23T01:03:04;3.95;;;3.10;;
59734;SDS011;64362;45.620;4.920;2023-03-23T01:05:34;4.85;;;3.38;;
59734;SDS011;64362;45.620;4.920;2023-03-23T01:08:00;6.30;;;3.58;;
59734;SDS011;64362;45.620;4.920;2023-03-23T01:10:29;4.53;;;3.33;;
59734;SDS011;64362;45.620;4.920;2023-03-23T01:12:58;4.35;;;3.30;;
59734;SDS011;64362;45.620;4.920;2023-03-23T01:15:26;4.28;;;3.17;;
59734;SDS011;64362;45.620;4.920;2023-03-23T01:17:53;4.13;;;3.08;;
59734;SDS011;64362;45.620;4.920;2023-03-23T01:20:18;4.38;;;3.22;;
59734;SDS011;64362;45.620;4.920;2023-03-23T01:22:44;4.28;;;3.17;;
59734;SDS011;64362;45.620;4.920;2023-03-23T01:25:10;5.20;;;3.40;;
59734;SDS011;64362;45.620;4.920;2023-03-23T01:27:37;5.22;;;3.35;;
59734;SDS011;64362;45.620;4.920;2023-03-23T01:30:03;4.78;;;3.22;;
59734;SDS011;64362;45.620;4.920;2023-03-23T01:32:30;5.35;;;3.67;;
59734;SDS011;64362;45.620;4.920;2023-03-23T01:34:55;4.65;;;3.28;;
59734;SDS011;64362;45.620;4.920;2023-03-23T01:37:21;6.20;;;3.67;;
59734;SDS011;64362;45.620;4.920;2023-03-23T01:39:55;4.20;;;3.70;;
59734;SDS011;64362;45.620;4.920;2023-03-23T01:42:25;4.07;;;3.00;;
59734;SDS011;64362;45.620;4.920;2023-03-23T01:47:18;3.95;;;3.20;;
59734;SDS011;64362;45.620;4.920;2023-03-23T01:49:48;4.45;;;3.08;;
59734;SDS011;64362;45.620;4.920;2023-03-23T01:52:19;4.32;;;3.30;;
59734;SDS011;64362;45.620;4.920;2023-03-23T01:54:54;3.92;;;3.05;;
59734;SDS011;64362;45.620;4.920;2023-03-23T01:57:21;4.05;;;3.42;;
59734;SDS011;64362;45.620;4.920;2023-03-23T01:59:49;4.60;;;3.22;;
59734;SDS011;64362;45.620;4.920;2023-03-23T02:02:24;4.10;;;3.40;;
59734;SDS011;64362;45.620;4.920;2023-03-23T02:04:51;5.15;;;3.20;;
59734;SDS011;64362;45.620;4.920;2023-03-23T02:07:18;4.95;;;3.28;;
59734;SDS011;64362;45.620;4.920;2023-03-23T02:09:47;5.35;;;3.10;;
59734;SDS011;64362;45.620;4.920;2023-03-23T02:12:15;3.50;;;3.03;;
59734;SDS011;64362;45.620;4.920;2023-03-23T02:14:41;4.22;;;3.03;;
59734;SDS011;64362;45.620;4.920;2023-03-23T02:17:10;4.07;;;3.13;;
59734;SDS011;64362;45.620;4.920;2023-03-23T02:22:35;3.72;;;3.03;;
59734;SDS011;64362;45.620;4.920;2023-03-23T02:25:23;3.25;;;2.83;;
59734;SDS011;64362;45.620;4.920;2023-03-23T02:31:05;4.05;;;3.05;;
59734;SDS011;64362;45.620;4.920;2023-03-23T02:34:27;5.55;;;3.00;;
59734;SDS011;64362;45.620;4.920;2023-03-23T02:36:58;4.20;;;3.47;;
59734;SDS011;64362;45.620;4.920;2023-03-23T02:39:37;3.95;;;3.10;;
59734;SDS011;64362;45.620;4.920;2023-03-23T02:42:08;3.63;;;3.00;;
59734;SDS011;64362;45.620;4.920;2023-03-23T02:44:37;3.97;;;3.42;;
59734;SDS011;64362;45.620;4.920;2023-03-23T02:47:05;4.43;;;3.05;;
59734;SDS011;64362;45.620;4.920;2023-03-23T02:49:34;3.67;;;2.83;;
59734;SDS011;64362;45.620;4.920;2023-03-23T02:52:06;4.47;;;2.90;;
59734;SDS011;64362;45.620;4.920;2023-03-23T02:54:35;3.28;;;2.75;;
59734;SDS011;64362;45.620;4.920;2023-03-23T02:57:01;3.42;;;2.75;;
59734;SDS011;64362;45.620;4.920;2023-03-23T02:59:29;4.90;;;2.60;;
59734;SDS011;64362;45.620;4.920;2023-03-23T03:02:03;4.80;;;2.88;;
59734;SDS011;64362;45.620;4.920;2023-03-23T03:04:31;5.53;;;3.00;;
59734;SDS011;64362;45.620;4.920;2023-03-23T03:07:02;4.22;;;2.70;;
59734;SDS011;64362;45.620;4.920;2023-03-23T03:15:08;5.30;;;2.75;;
59734;SDS011;64362;45.620;4.920;2023-03-23T03:17:38;4.18;;;2.58;;
59734;SDS011;64362;45.620;4.920;2023-03-23T03:20:08;3.53;;;2.63;;
59734;SDS011;64362;45.620;4.920;2023-03-23T03:22:37;3.17;;;2.75;;
59734;SDS011;64362;45.620;4.920;2023-03-23T03:25:07;3.83;;;2.60;;
59734;SDS011;64362;45.620;4.920;2023-03-23T03:27:38;3.42;;;2.95;;
59734;SDS011;64362;45.620;4.920;2023-03-23T03:30:12;3.20;;;2.60;;
59734;SDS011;64362;45.620;4.920;2023-03-23T03:32:46;3.45;;;2.67;;
59734;SDS011;64362;45.620;4.920;2023-03-23T03:35:14;4.00;;;2.70;;
59734;SDS011;64362;45.620;4.920;2023-03-23T03:37:41;4.05;;;3.00;;
59734;SDS011;64362;45.620;4.920;2023-03-23T03:40:08;4.97;;;3.00;;
59734;SDS011;64362;45.620;4.920;2023-03-23T03:42:38;3.45;;;2.78;;
59734;SDS011;64362;45.620;4.920;2023-03-23T03:45:05;3.55;;;2.53;;
59734;SDS011;64362;45.620;4.920;2023-03-23T03:47:32;2.67;;;2.42;;
59734;SDS011;64362;45.620;4.920;2023-03-23T03:49:58;3.35;;;2.58;;
59734;SDS011;64362;45.620;4.920;2023-03-23T03:52:23;4.20;;;2.75;;
59734;SDS011;64362;45.620;4.920;2023-03-23T03:54:49;4.80;;;3.28;;
59734;SDS011;64362;45.620;4.920;2023-03-23T03:57:15;10.27;;;3.22;;
59734;SDS011;64362;45.620;4.920;2023-03-23T04:00:02;3.63;;;2.58;;
59734;SDS011;64362;45.620;4.920;2023-03-23T04:02:41;4.40;;;3.00;;
59734;SDS011;64362;45.620;4.920;2023-03-23T04:05:08;3.85;;;2.70;;
59734;SDS011;64362;45.620;4.920;2023-03-23T04:07:35;3.30;;;2.58;;
59734;SDS011;64362;45.620;4.920;2023-03-23T04:10:04;3.47;;;2.42;;
59734;SDS011;64362;45.620;4.920;2023-03-23T04:12:31;3.33;;;2.55;;
59734;SDS011;64362;45.620;4.920;2023-03-23T04:14:56;3.50;;;2.60;;
59734;SDS011;64362;45.620;4.920;2023-03-23T04:17:29;3.75;;;2.50;;
59734;SDS011;64362;45.620;4.920;2023-03-23T04:19:54;4.60;;;2.50;;
59734;SDS011;64362;45.620;4.920;2023-03-23T04:22:25;3.80;;;2.67;;
59734;SDS011;64362;45.620;4.920;2023-03-23T04:24:56;3.97;;;2.83;;
59734;SDS011;64362;45.620;4.920;2023-03-23T04:27:25;3.70;;;2.63;;
59734;SDS011;64362;45.620;4.920;2023-03-23T04:29:57;2.88;;;2.40;;
59734;SDS011;64362;45.620;4.920;2023-03-23T04:32:44;3.53;;;2.60;;
59734;SDS011;64362;45.620;4.920;2023-03-23T04:35:14;2.90;;;2.60;;
59734;SDS011;64362;45.620;4.920;2023-03-23T04:38:08;3.10;;;2.33;;
59734;SDS011;64362;45.620;4.920;2023-03-23T04:40:36;4.97;;;2.65;;
59734;SDS011;64362;45.620;4.920;2023-03-23T04:43:13;2.83;;;2.30;;
59734;SDS011;64362;45.620;4.920;2023-03-23T04:46:09;3.83;;;2.50;;
59734;SDS011;64362;45.620;4.920;2023-03-23T04:48:35;2.80;;;2.22;;
59734;SDS011;64362;45.620;4.920;2023-03-23T04:51:08;4.53;;;2.65;;
59734;SDS011;64362;45.620;4.920;2023-03-23T04:53:35;3.33;;;2.50;;
59734;SDS011;64362;45.620;4.920;2023-03-23T04:56:01;3.85;;;2.30;;
59734;SDS011;64362;45.620;4.920;2023-03-23T04:58:32;3.53;;;2.53;;
59734;SDS011;64362;45.620;4.920;2023-03-23T05:01:12;3.50;;;2.30;;
59734;SDS011;64362;45.620;4.920;2023-03-23T05:04:15;3.22;;;2.50;;
59734;SDS011;64362;45.620;4.920;2023-03-23T05:06:42;4.38;;;2.67;;
59734;SDS011;64362;45.620;4.920;2023-03-23T05:09:15;2.80;;;2.28;;
59734;SDS011;64362;45.620;4.920;2023-03-23T05:11:41;4.55;;;2.45;;
59734;SDS011;64362;45.620;4.920;2023-03-23T05:14:06;3.33;;;2.60;;
59734;SDS011;64362;45.620;4.920;2023-03-23T05:16:32;3.05;;;2.17;;
59734;SDS011;64362;45.620;4.920;2023-03-23T05:18:57;4.07;;;2.63;;
59734;SDS011;64362;45.620;4.920;2023-03-23T05:21:25;4.15;;;2.78;;
59734;SDS011;64362;45.620;4.920;2023-03-23T05:23:53;3.50;;;2.70;;
59734;SDS011;64362;45.620;4.920;2023-03-23T05:26:20;3.92;;;2.45;;
59734;SDS011;64362;45.620;4.920;2023-03-23T05:28:46;3.72;;;2.60;;
59734;SDS011;64362;45.620;4.920;2023-03-23T05:31:19;3.92;;;2.30;;
59734;SDS011;64362;45.620;4.920;2023-03-23T05:33:44;3.40;;;2.10;;
59734;SDS011;64362;45.620;4.920;2023-03-23T05:36:29;3.08;;;2.45;;
59734;SDS011;64362;45.620;4.920;2023-03-23T05:39:20;3.45;;;2.50;;
59734;SDS011;64362;45.620;4.920;2023-03-23T05:42:01;3.60;;;2.28;;
59734;SDS011;64362;45.620;4.920;2023-03-23T05:44:38;3.08;;;2.28;;
59734;SDS011;64362;45.620;4.920;2023-03-23T05:47:04;3.00;;;2.13;;
59734;SDS011;64362;45.620;4.920;2023-03-23T05:49:30;3.15;;;2.30;;
59734;SDS011;64362;45.620;4.920;2023-03-23T05:51:55;3.75;;;2.17;;
59734;SDS011;64362;45.620;4.920;2023-03-23T05:54:21;4.47;;;2.30;;
59734;SDS011;64362;45.620;4.920;2023-03-23T05:56:48;5.15;;;2.58;;
59734;SDS011;64362;45.620;4.920;2023-03-23T05:59:32;3.78;;;2.10;;
59734;SDS011;64362;45.620;4.920;2023-03-23T06:02:00;6.18;;;2.35;;
59734;SDS011;64362;45.620;4.920;2023-03-23T06:04:25;5.32;;;2.58;;
59734;SDS011;64362;45.620;4.920;2023-03-23T06:07:10;7.00;;;2.72;;
59734;SDS011;64362;45.620;4.920;2023-03-23T06:09:45;6.10;;;2.53;;
59734;SDS011;64362;45.620;4.920;2023-03-23T06:12:22;6.57;;;2.70;;
59734;SDS011;64362;45.620;4.920;2023-03-23T06:15:08;6.13;;;2.70;;
59734;SDS011;64362;45.620;4.920;2023-03-23T06:17:53;4.33;;;2.60;;
59734;SDS011;64362;45.620;4.920;2023-03-23T06:20:25;7.60;;;2.42;;
59734;SDS011;64362;45.620;4.920;2023-03-23T06:22:52;6.65;;;2.72;;
59734;SDS011;64362;45.620;4.920;2023-03-23T06:25:30;10.20;;;3.17;;
59734;SDS011;64362;45.620;4.920;2023-03-23T06:27:56;9.63;;;2.65;;
59734;SDS011;64362;45.620;4.920;2023-03-23T06:30:22;5.22;;;2.63;;
59734;SDS011;64362;45.620;4.920;2023-03-23T06:32:48;6.20;;;2.63;;
59734;SDS011;64362;45.620;4.920;2023-03-23T06:35:17;7.18;;;3.08;;
59734;SDS011;64362;45.620;4.920;2023-03-23T06:38:01;10.77;;;2.88;;
59734;SDS011;64362;45.620;4.920;2023-03-23T06:40:44;6.88;;;2.65;;
59734;SDS011;64362;45.620;4.920;2023-03-23T06:43:12;6.97;;;2.75;;
59734;SDS011;64362;45.620;4.920;2023-03-23T06:45:54;8.55;;;2.50;;
59734;SDS011;64362;45.620;4.920;2023-03-23T06:48:25;7.13;;;2.30;;
59734;SDS011;64362;45.620;4.920;2023-03-23T06:50:51;8.73;;;2.85;;
59734;SDS011;64362;45.620;4.920;2023-03-23T06:53:19;5.50;;;2.72;;
59734;SDS011;64362;45.620;4.920;2023-03-23T06:55:46;5.38;;;2.67;;
59734;SDS011;64362;45.620;4.920;2023-03-23T06:58:12;5.72;;;2.35;;
59734;SDS011;64362;45.620;4.920;2023-03-23T07:00:38;8.40;;;2.78;;
59734;SDS011;64362;45.620;4.920;2023-03-23T07:03:04;5.35;;;2.30;;
59734;SDS011;64362;45.620;4.920;2023-03-23T07:05:31;3.22;;;2.17;;
59734;SDS011;64362;45.620;4.920;2023-03-23T07:07:58;4.07;;;2.30;;
59734;SDS011;64362;45.620;4.920;2023-03-23T07:10:33;5.57;;;2.65;;
59734;SDS011;64362;45.620;4.920;2023-03-23T07:13:00;6.68;;;3.28;;
59734;SDS011;64362;45.620;4.920;2023-03-23T07:15:29;5.68;;;2.65;;
59734;SDS011;64362;45.620;4.920;2023-03-23T07:17:56;3.88;;;2.30;;
59734;SDS011;64362;45.620;4.920;2023-03-23T07:20:29;4.50;;;2.38;;
59734;SDS011;64362;45.620;4.920;2023-03-23T07:22:55;5.88;;;2.72;;
59734;SDS011;64362;45.620;4.920;2023-03-23T07:25:34;6.15;;;2.70;;
59734;SDS011;64362;45.620;4.920;2023-03-23T07:28:01;5.13;;;2.40;;
59734;SDS011;64362;45.620;4.920;2023-03-23T07:30:27;3.45;;;2.40;;
59734;SDS011;64362;45.620;4.920;2023-03-23T07:32:55;5.15;;;2.63;;
59734;SDS011;64362;45.620;4.920;2023-03-23T07:35:21;4.30;;;2.63;;
59734;SDS011;64362;45.620;4.920;2023-03-23T07:37:58;5.63;;;2.65;;
59734;SDS011;64362;45.620;4.920;2023-03-23T07:40:24;4.28;;;3.08;;
59734;SDS011;64362;45.620;4.920;2023-03-23T07:42:53;5.13;;;2.50;;
59734;SDS011;64362;45.620;4.920;2023-03-23T07:45:28;3.78;;;2.55;;
59734;SDS011;64362;45.620;4.920;2023-03-23T07:47:55;4.60;;;2.47;;
59734;SDS011;64362;45.620;4.920;2023-03-23T07:50:21;3.83;;;2.40;;
59734;SDS011;64362;45.620;4.920;2023-03-23T07:52:49;3.47;;;2.13;;
59734;SDS011;64362;45.620;4.920;2023-03-23T07:55:18;5.07;;;2.72;;
59734;SDS011;64362;45.620;4.920;2023-03-23T07:57:52;5.25;;;2.60;;
59734;SDS011;64362;45.620;4.920;2023-03-23T08:00:18;3.60;;;2.45;;
59734;SDS011;64362;45.620;4.920;2023-03-23T08:02:46;4.75;;;2.78;;
59734;SDS011;64362;45.620;4.920;2023-03-23T08:05:28;5.40;;;2.60;;
59734;SDS011;64362;45.620;4.920;2023-03-23T08:08:17;4.35;;;2.70;;
59734;SDS011;64362;45.620;4.920;2023-03-23T08:11:02;3.10;;;2.23;;
59734;SDS011;64362;45.620;4.920;2023-03-23T08:13:46;4.30;;;2.28;;
59734;SDS011;64362;45.620;4.920;2023-03-23T08:16:34;3.88;;;2.45;;
59734;SDS011;64362;45.620;4.920;2023-03-23T08:19:06;3.63;;;2.63;;
59734;SDS011;64362;45.620;4.920;2023-03-23T08:21:32;3.13;;;2.22;;
59734;SDS011;64362;45.620;4.920;2023-03-23T08:24:17;3.30;;;2.10;;
59734;SDS011;64362;45.620;4.920;2023-03-23T08:26:54;4.45;;;2.63;;
59734;SDS011;64362;45.620;4.920;2023-03-23T08:29:20;3.25;;;2.30;;
59734;SDS011;64362;45.620;4.920;2023-03-23T08:32:04;4.55;;;2.25;;
59734;SDS011;64362;45.620;4.920;2023-03-23T08:34:50;2.53;;;2.30;;
59734;SDS011;64362;45.620;4.920;2023-03-23T08:37:35;3.67;;;2.57;;
59734;SDS011;64362;45.620;4.920;2023-03-23T08:40:18;4.40;;;2.35;;
59734;SDS011;64362;45.620;4.920;2023-03-23T08:43:02;3.50;;;2.20;;
59734;SDS011;64362;45.620;4.920;2023-03-23T08:46:07;3.15;;;2.25;;
59734;SDS011;64362;45.620;4.920;2023-03-23T08:49:06;3.30;;;2.58;;
59734;SDS011;64362;45.620;4.920;2023-03-23T08:51:40;3.35;;;2.33;;
59734;SDS011;64362;45.620;4.920;2023-03-23T08:54:24;3.03;;;2.55;;
59734;SDS011;64362;45.620;4.920;2023-03-23T08:57:17;4.30;;;2.40;;
59734;SDS011;64362;45.620;4.920;2023-03-23T09:00:06;3.10;;;2.33;;
59734;SDS011;64362;45.620;4.920;2023-03-23T09:02:54;3.30;;;2.40;;
59734;SDS011;64362;45.620;4.920;2023-03-23T09:05:26;3.80;;;2.92;;
59734;SDS011;64362;45.620;4.920;2023-03-23T09:08:22;3.08;;;2.35;;
59734;SDS011;64362;45.620;4.920;2023-03-23T09:10:47;4.07;;;2.65;;
59734;SDS011;64362;45.620;4.920;2023-03-23T09:13:14;3.75;;;2.55;;
59734;SDS011;64362;45.620;4.920;2023-03-23T09:15:40;3.80;;;2.38;;
59734;SDS011;64362;45.620;4.920;2023-03-23T09:18:06;3.22;;;2.78;;
59734;SDS011;64362;45.620;4.920;2023-03-23T09:20:31;3.80;;;2.17;;
59734;SDS011;64362;45.620;4.920;2023-03-23T09:22:57;3.72;;;2.60;;
59734;SDS011;64362;45.620;4.920;2023-03-23T09:25:23;3.55;;;2.58;;
59734;SDS011;64362;45.620;4.920;2023-03-23T09:27:52;3.47;;;2.63;;
59734;SDS011;64362;45.620;4.920;2023-03-23T09:30:21;3.50;;;2.45;;
59734;SDS011;64362;45.620;4.920;2023-03-23T09:33:02;2.53;;;2.15;;
59734;SDS011;64362;45.620;4.920;2023-03-23T09:35:29;3.13;;;2.35;;
59734;SDS011;64362;45.620;4.920;2023-03-23T09:37:56;3.50;;;2.55;;
59734;SDS011;64362;45.620;4.920;2023-03-23T09:40:45;2.90;;;2.30;;
59734;SDS011;64362;45.620;4.920;2023-03-23T09:43:22;2.45;;;2.05;;
59734;SDS011;64362;45.620;4.920;2023-03-23T09:48:48;4.60;;;2.58;;
59734;SDS011;64362;45.620;4.920;2023-03-23T09:51:19;3.97;;;2.38;;
59734;SDS011;64362;45.620;4.920;2023-03-23T09:54:10;3.95;;;2.72;;
59734;SDS011;64362;45.620;4.920;2023-03-23T09:56:47;2.50;;;2.03;;
59734;SDS011;64362;45.620;4.920;2023-03-23T09:59:19;3.63;;;2.28;;
59734;SDS011;64362;45.620;4.920;2023-03-23T10:01:47;3.58;;;2.17;;
59734;SDS011;64362;45.620;4.920;2023-03-23T10:06:58;3.30;;;2.47;;
59734;SDS011;64362;45.620;4.920;2023-03-23T10:09:25;3.40;;;2.38;;
59734;SDS011;64362;45.620;4.920;2023-03-23T10:17:27;3.40;;;2.03;;
59734;SDS011;64362;45.620;4.920;2023-03-23T10:22:34;3.67;;;2.50;;
59734;SDS011;64362;45.620;4.920;2023-03-23T10:27:40;3.00;;;2.30;;
59734;SDS011;64362;45.620;4.920;2023-03-23T10:32:45;3.22;;;2.42;;
59734;SDS011;64362;45.620;4.920;2023-03-23T10:35:18;3.25;;;2.25;;
59734;SDS011;64362;45.620;4.920;2023-03-23T10:37:54;3.25;;;2.22;;
59734;SDS011;64362;45.620;4.920;2023-03-23T10:40:27;2.97;;;2.30;;
59734;SDS011;64362;45.620;4.920;2023-03-23T10:42:54;2.50;;;2.03;;
59734;SDS011;64362;45.620;4.920;2023-03-23T10:45:22;4.18;;;2.33;;
59734;SDS011;64362;45.620;4.920;2023-03-23T10:47:56;3.67;;;2.17;;
59734;SDS011;64362;45.620;4.920;2023-03-23T10:50:23;3.80;;;2.70;;
59734;SDS011;64362;45.620;4.920;2023-03-23T10:52:51;2.60;;;2.10;;
59734;SDS011;64362;45.620;4.920;2023-03-23T10:55:22;3.28;;;2.35;;
59734;SDS011;64362;45.620;4.920;2023-03-23T10:58:02;2.95;;;2.33;;
59734;SDS011;64362;45.620;4.920;2023-03-23T11:00:33;2.45;;;2.20;;
59734;SDS011;64362;45.620;4.920;2023-03-23T11:05:25;2.90;;;2.08;;
59734;SDS011;64362;45.620;4.920;2023-03-23T11:08:00;3.17;;;2.50;;
59734;SDS011;64362;45.620;4.920;2023-03-23T11:10:36;3.38;;;2.40;;
59734;SDS011;64362;45.620;4.920;2023-03-23T11:13:04;2.95;;;2.20;;
59734;SDS011;64362;45.620;4.920;2023-03-23T11:15:38;3.20;;;2.40;;
59734;SDS011;64362;45.620;4.920;2023-03-23T11:18:06;3.80;;;2.70;;
59734;SDS011;64362;45.620;4.920;2023-03-23T11:20:36;3.22;;;2.38;;
59734;SDS011;64362;45.620;4.920;2023-03-23T11:23:10;3.65;;;2.33;;
59734;SDS011;64362;45.620;4.920;2023-03-23T11:28:36;2.92;;;2.30;;
59734;SDS011;64362;45.620;4.920;2023-03-23T11:31:07;3.00;;;2.20;;
59734;SDS011;64362;45.620;4.920;2023-03-23T11:36:21;3.65;;;2.60;;
59734;SDS011;64362;45.620;4.920;2023-03-23T11:38:54;3.67;;;2.40;;
59734;SDS011;64362;45.620;4.920;2023-03-23T11:41:22;3.75;;;2.10;;
59734;SDS011;64362;45.620;4.920;2023-03-23T11:43:50;2.95;;;2.38;;
59734;SDS011;64362;45.620;4.920;2023-03-23T11:46:20;2.97;;;1.92;;
59734;SDS011;64362;45.620;4.920;2023-03-23T11:48:58;3.03;;;2.50;;
59734;SDS011;64362;45.620;4.920;2023-03-23T11:56:40;3.00;;;2.70;;
59734;SDS011;64362;45.620;4.920;2023-03-23T11:59:11;3.33;;;2.60;;
59734;SDS011;64362;45.620;4.920;2023-03-23T12:01:46;3.92;;;2.40;;
59734;SDS011;64362;45.620;4.920;2023-03-23T12:04:27;4.20;;;2.35;;
59734;SDS011;64362;45.620;4.920;2023-03-23T12:07:00;3.47;;;2.60;;
59734;SDS011;64362;45.620;4.920;2023-03-23T12:31:33;3.58;;;2.60;;
59734;SDS011;64362;45.620;4.920;2023-03-23T12:47:39;4.32;;;3.25;;
59734;SDS011;64362;45.620;4.920;2023-03-23T12:50:16;4.30;;;3.15;;
59734;SDS011;64362;45.620;4.920;2023-03-23T12:52:49;3.73;;;2.60;;
59734;SDS011;64362;45.620;4.920;2023-03-23T12:55:31;3.80;;;2.72;;
59734;SDS011;64362;45.620;4.920;2023-03-23T12:58:02;4.55;;;3.33;;
59734;SDS011;64362;45.620;4.920;2023-03-23T13:03:26;3.20;;;2.90;;
59734;SDS011;64362;45.620;4.920;2023-03-23T13:05:54;3.38;;;2.85;;
59734;SDS011;64362;45.620;4.920;2023-03-23T13:08:36;4.53;;;2.67;;
59734;SDS011;64362;45.620;4.920;2023-03-23T13:11:05;3.15;;;2.85;;
59734;SDS011;64362;45.620;4.920;2023-03-23T13:22:06;4.25;;;2.80;;
59734;SDS011;64362;45.620;4.920;2023-03-23T13:24:36;3.92;;;3.13;;
59734;SDS011;64362;45.620;4.920;2023-03-23T13:27:12;4.47;;;3.33;;
59734;SDS011;64362;45.620;4.920;2023-03-23T13:29:43;4.03;;;2.63;;
59734;SDS011;64362;45.620;4.920;2023-03-23T13:32:11;4.28;;;3.22;;
59734;SDS011;64362;45.620;4.920;2023-03-23T13:34:42;3.42;;;3.13;;
59734;SDS011;64362;45.620;4.920;2023-03-23T13:37:21;4.88;;;3.42;;
59734;SDS011;64362;45.620;4.920;2023-03-23T13:47:20;5.78;;;4.10;;
59734;SDS011;64362;45.620;4.920;2023-03-23T13:49:51;4.78;;;3.50;;
59734;SDS011;64362;45.620;4.920;2023-03-23T14:05:36;5.75;;;3.97;;
59734;SDS011;64362;45.620;4.920;2023-03-23T14:08:10;4.05;;;3.63;;
59734;SDS011;64362;45.620;4.920;2023-03-23T14:10:42;5.15;;;3.80;;
59734;SDS011;64362;45.620;4.920;2023-03-23T14:13:20;6.53;;;4.35;;
59734;SDS011;64362;45.620;4.920;2023-03-23T14:18:29;7.18;;;4.70;;
59734;SDS011;64362;45.620;4.920;2023-03-23T14:20:57;5.05;;;4.55;;
59734;SDS011;64362;45.620;4.920;2023-03-23T14:23:23;5.40;;;4.60;;
59734;SDS011;64362;45.620;4.920;2023-03-23T14:25:55;5.53;;;4.82;;
59734;SDS011;64362;45.620;4.920;2023-03-23T14:28:30;6.40;;;4.28;;
59734;SDS011;64362;45.620;4.920;2023-03-23T14:30:56;6.50;;;4.60;;
59734;SDS011;64362;45.620;4.920;2023-03-23T14:33:22;5.60;;;4.60;;
59734;SDS011;64362;45.620;4.920;2023-03-23T14:35:50;5.85;;;4.43;;
59734;SDS011;64362;45.620;4.920;2023-03-23T14:38:18;4.78;;;4.15;;
59734;SDS011;64362;45.620;4.920;2023-03-23T14:40:46;5.18;;;4.60;;
59734;SDS011;64362;45.620;4.920;2023-03-23T14:43:13;7.05;;;4.90;;
59734;SDS011;64362;45.620;4.920;2023-03-23T14:45:41;5.90;;;5.30;;
59734;SDS011;64362;45.620;4.920;2023-03-23T14:48:07;5.85;;;4.40;;
59734;SDS011;64362;45.620;4.920;2023-03-23T14:50:38;6.20;;;5.07;;
59734;SDS011;64362;45.620;4.920;2023-03-23T14:55:50;6.30;;;4.90;;
59734;SDS011;64362;45.620;4.920;2023-03-23T14:58:18;6.10;;;4.53;;
59734;SDS011;64362;45.620;4.920;2023-03-23T15:00:47;6.90;;;5.50;;
59734;SDS011;64362;45.620;4.920;2023-03-23T15:03:25;5.63;;;4.57;;
59734;SDS011;64362;45.620;4.920;2023-03-23T15:05:56;7.05;;;5.50;;
59734;SDS011;64362;45.620;4.920;2023-03-23T15:08:27;5.88;;;5.22;;
59734;SDS011;64362;45.620;4.920;2023-03-23T15:13:48;6.50;;;4.97;;
59734;SDS011;64362;45.620;4.920;2023-03-23T15:18:48;7.28;;;5.03;;
59734;SDS011;64362;45.620;4.920;2023-03-23T15:21:22;6.07;;;5.25;;
59734;SDS011;64362;45.620;4.920;2023-03-23T15:23:59;6.03;;;5.18;;
59734;SDS011;64362;45.620;4.920;2023-03-23T15:26:27;5.75;;;5.07;;
59734;SDS011;64362;45.620;4.920;2023-03-23T15:31:53;5.70;;;4.97;;
59734;SDS011;64362;45.620;4.920;2023-03-23T15:34:30;5.75;;;5.00;;
59734;SDS011;64362;45.620;4.920;2023-03-23T15:37:02;6.45;;;5.05;;
59734;SDS011;64362;45.620;4.920;2023-03-23T15:39:30;6.28;;;5.40;;
59734;SDS011;64362;45.620;4.920;2023-03-23T15:41:56;6.30;;;5.18;;
59734;SDS011;64362;45.620;4.920;2023-03-23T15:46:50;5.88;;;5.18;;
59734;SDS011;64362;45.620;4.920;2023-03-23T15:49:17;7.45;;;5.20;;
59734;SDS011;64362;45.620;4.920;2023-03-23T15:51:43;5.70;;;5.10;;
59734;SDS011;64362;45.620;4.920;2023-03-23T15:54:17;7.70;;;5.30;;
59734;SDS011;64362;45.620;4.920;2023-03-23T15:56:43;7.60;;;6.00;;
59734;SDS011;64362;45.620;4.920;2023-03-23T15:59:09;5.82;;;5.15;;
59734;SDS011;64362;45.620;4.920;2023-03-23T16:01:36;6.30;;;5.25;;
59734;SDS011;64362;45.620;4.920;2023-03-23T16:06:41;7.20;;;5.43;;
59734;SDS011;64362;45.620;4.920;2023-03-23T16:09:07;5.88;;;5.28;;
59734;SDS011;64362;45.620;4.920;2023-03-23T16:11:36;6.88;;;5.70;;
59734;SDS011;64362;45.620;4.920;2023-03-23T16:14:01;5.80;;;5.07;;
59734;SDS011;64362;45.620;4.920;2023-03-23T16:16:28;7.97;;;5.55;;
59734;SDS011;64362;45.620;4.920;2023-03-23T16:18:54;6.05;;;5.45;;
59734;SDS011;64362;45.620;4.920;2023-03-23T16:21:20;6.18;;;5.55;;
59734;SDS011;64362;45.620;4.920;2023-03-23T16:23:46;6.38;;;5.68;;
59734;SDS011;64362;45.620;4.920;2023-03-23T16:26:12;5.90;;;5.32;;
59734;SDS011;64362;45.620;4.920;2023-03-23T16:28:38;6.97;;;5.78;;
59734;SDS011;64362;45.620;4.920;2023-03-23T16:31:05;6.65;;;5.70;;
59734;SDS011;64362;45.620;4.920;2023-03-23T16:33:30;6.40;;;5.50;;
59734;SDS011;64362;45.620;4.920;2023-03-23T16:35:56;6.43;;;5.35;;
59734;SDS011;64362;45.620;4.920;2023-03-23T16:38:22;6.50;;;5.82;;
59734;SDS011;64362;45.620;4.920;2023-03-23T16:40:48;6.60;;;5.65;;
59734;SDS011;64362;45.620;4.920;2023-03-23T16:43:14;6.80;;;5.82;;
59734;SDS011;64362;45.620;4.920;2023-03-23T16:45:40;6.60;;;5.35;;
59734;SDS011;64362;45.620;4.920;2023-03-23T16:48:07;6.30;;;5.13;;
59734;SDS011;64362;45.620;4.920;2023-03-23T16:50:35;5.50;;;5.00;;
59734;SDS011;64362;45.620;4.920;2023-03-23T16:53:01;6.35;;;5.22;;
59734;SDS011;64362;45.620;4.920;2023-03-23T16:55:27;6.45;;;4.93;;
59734;SDS011;64362;45.620;4.920;2023-03-23T16:57:52;5.65;;;5.05;;
59734;SDS011;64362;45.620;4.920;2023-03-23T17:00:19;5.75;;;5.07;;
59734;SDS011;64362;45.620;4.920;2023-03-23T17:02:46;8.20;;;5.43;;
59734;SDS011;64362;45.620;4.920;2023-03-23T17:05:12;6.93;;;5.20;;
59734;SDS011;64362;45.620;4.920;2023-03-23T17:07:39;6.10;;;5.15;;
59734;SDS011;64362;45.620;4.920;2023-03-23T17:10:06;7.15;;;5.10;;
59734;SDS011;64362;45.620;4.920;2023-03-23T17:12:33;5.03;;;4.15;;
59734;SDS011;64362;45.620;4.920;2023-03-23T17:14:58;6.85;;;5.03;;
59734;SDS011;64362;45.620;4.920;2023-03-23T17:17:24;5.05;;;4.38;;
59734;SDS011;64362;45.620;4.920;2023-03-23T17:19:49;5.20;;;4.70;;
59734;SDS011;64362;45.620;4.920;2023-03-23T17:22:15;6.78;;;5.18;;
59734;SDS011;64362;45.620;4.920;2023-03-23T17:24:41;6.15;;;4.97;;